Time;durP1;ratioP1;P1;durP2;ratioP2;P2;SDS_P1;SDS_P2;PMS_P1;PMS_P2;Temp;Humidity;BMP_temperature;BMP_pressure;BME280_temperature;BME280_humidity;BME280_pressure;Samples;Min_cycle;Max_cycle;Signal;HPM_P1;HPM_P2
2022/07/03 00:00:34;;;;;;;8.05;3.90;;;;;;;;;;5051259;28;20036;-57
2022/07/03 00:03:00;;;;;;;8.75;3.60;;;;;;;;;;5051457;28;20037;-59
2022/07/03 00:05:26;;;;;;;11.98;3.72;;;;;;;;;;5051346;28;20056;-56
2022/07/03 00:07:53;;;;;;;5.65;3.33;;;;;;;;;;5051453;28;20029;-63
2022/07/03 00:10:19;;;;;;;5.43;3.83;;;;;;;;;;5051424;28;20037;-61
2022/07/03 00:12:45;;;;;;;7.13;3.33;;;;;;;;;;5051398;28;20033;-58
2022/07/03 00:15:11;;;;;;;12.38;3.50;;;;;;;;;;5051336;28;20033;-71
2022/07/03 00:17:37;;;;;;;6.53;3.20;;;;;;;;;;5051455;28;20166;-59
2022/07/03 00:20:03;;;;;;;6.72;3.67;;;;;;;;;;5049399;28;20834;-67
2022/07/03 00:22:30;;;;;;;4.95;3.05;;;;;;;;;;5051123;28;20025;-57
2022/07/03 00:25:06;;;;;;;6.97;3.45;;;;;;;;;;5051225;28;20036;-63
2022/07/03 00:27:33;;;;;;;7.90;2.95;;;;;;;;;;5050452;28;20662;-58
2022/07/03 00:30:00;;;;;;;6.80;3.50;;;;;;;;;;5050719;28;20040;-60
2022/07/03 00:32:27;;;;;;;7.80;3.25;;;;;;;;;;5050503;28;20071;-62
2022/07/03 00:34:54;;;;;;;9.20;3.08;;;;;;;;;;5050646;28;20029;-58
2022/07/03 00:37:20;;;;;;;7.82;3.05;;;;;;;;;;5050842;28;20091;-63
2022/07/03 00:39:48;;;;;;;7.72;3.30;;;;;;;;;;5050650;28;20033;-67
2022/07/03 00:42:14;;;;;;;6.28;2.88;;;;;;;;;;5050493;28;20096;-63
2022/07/03 00:44:51;;;;;;;9.93;3.30;;;;;;;;;;5049707;28;20029;-63
2022/07/03 00:47:18;;;;;;;8.32;2.97;;;;;;;;;;5050333;28;20056;-65
2022/07/03 00:49:46;;;;;;;9.23;3.08;;;;;;;;;;5050543;28;20047;-69
2022/07/03 00:52:13;;;;;;;7.47;3.10;;;;;;;;;;5050578;28;20047;-57
2022/07/03 00:54:42;;;;;;;8.13;3.67;;;;;;;;;;5050449;28;20035;-63
2022/07/03 00:57:11;;;;;;;6.55;3.28;;;;;;;;;;5050653;28;20122;-58
2022/07/03 00:59:37;;;;;;;6.55;3.03;;;;;;;;;;5050124;28;20116;-67
2022/07/03 01:02:04;;;;;;;7.57;3.22;;;;;;;;;;5050523;28;20134;-57
2022/07/03 01:04:45;;;;;;;9.48;3.20;;;;;;;;;;5050558;28;20204;-69
2022/07/03 01:07:38;;;;;;;7.30;3.55;;;;;;;;;;5050261;28;20108;-60
2022/07/03 01:10:05;;;;;;;6.03;3.00;;;;;;;;;;4969121;28;20495;-57
2022/07/03 01:12:50;;;;;;;5.80;2.92;;;;;;;;;;4969405;28;20046;-57
2022/07/03 01:15:22;;;;;;;6.22;3.78;;;;;;;;;;4969516;28;20054;-57
2022/07/03 01:17:55;;;;;;;4.72;3.20;;;;;;;;;;4969484;28;20027;-66
2022/07/03 01:20:24;;;;;;;8.27;3.38;;;;;;;;;;4969419;28;20070;-57
2022/07/03 01:22:54;;;;;;;7.35;3.25;;;;;;;;;;4969281;28;20035;-65
2022/07/03 01:25:39;;;;;;;7.20;3.30;;;;;;;;;;4969470;28;20491;-58
2022/07/03 01:28:10;;;;;;;4.93;3.28;;;;;;;;;;4968892;28;20221;-69
2022/07/03 01:30:38;;;;;;;7.15;3.15;;;;;;;;;;4969155;28;20138;-65
2022/07/03 01:33:12;;;;;;;6.43;3.60;;;;;;;;;;4953070;28;20419;-66
2022/07/03 01:35:40;;;;;;;7.22;3.00;;;;;;;;;;4969481;28;20593;-57
2022/07/03 01:38:13;;;;;;;12.18;3.50;;;;;;;;;;4969375;28;20082;-69
2022/07/03 01:40:40;;;;;;;9.05;3.50;;;;;;;;;;4969117;28;20051;-57
2022/07/03 01:43:07;;;;;;;10.48;3.55;;;;;;;;;;4969379;28;20034;-57
2022/07/03 01:45:36;;;;;;;5.28;3.08;;;;;;;;;;4969021;28;20033;-63
2022/07/03 01:48:03;;;;;;;8.30;3.15;;;;;;;;;;5049778;28;20037;-69
2022/07/03 01:50:29;;;;;;;7.30;3.25;;;;;;;;;;5050194;28;20029;-57
2022/07/03 01:52:57;;;;;;;5.45;3.33;;;;;;;;;;5050301;28;20066;-58
2022/07/03 01:55:23;;;;;;;7.93;3.53;;;;;;;;;;5052641;28;20388;-59
2022/07/03 01:57:51;;;;;;;6.35;3.50;;;;;;;;;;5053890;28;20060;-60
2022/07/03 02:00:21;;;;;;;5.88;3.17;;;;;;;;;;5053180;28;20044;-57
2022/07/03 02:03:06;;;;;;;6.00;3.25;;;;;;;;;;5055873;28;20511;-58
2022/07/03 02:05:32;;;;;;;8.27;3.35;;;;;;;;;;5055273;28;20032;-57
2022/07/03 02:08:17;;;;;;;5.10;3.13;;;;;;;;;;5053690;28;20017;-57
2022/07/03 02:10:47;;;;;;;7.57;3.47;;;;;;;;;;5053625;28;20052;-57
2022/07/03 02:13:17;;;;;;;8.15;4.32;;;;;;;;;;5053549;28;20075;-57
2022/07/03 02:15:43;;;;;;;7.57;3.65;;;;;;;;;;5053474;28;20515;-70
2022/07/03 02:18:27;;;;;;;8.65;3.40;;;;;;;;;;5053449;28;20358;-57
2022/07/03 02:21:14;;;;;;;6.35;3.45;;;;;;;;;;5053277;28;20037;-69
2022/07/03 02:23:51;;;;;;;10.45;3.10;;;;;;;;;;5053152;28;20060;-66
2022/07/03 02:26:17;;;;;;;5.95;3.20;;;;;;;;;;5053147;28;20107;-58
2022/07/03 02:28:59;;;;;;;5.28;3.25;;;;;;;;;;5052537;28;20045;-65
2022/07/03 02:31:27;;;;;;;8.93;3.63;;;;;;;;;;5053141;28;20115;-69
2022/07/03 02:33:57;;;;;;;7.95;3.70;;;;;;;;;;5053119;28;20021;-69
2022/07/03 02:36:24;;;;;;;6.25;3.30;;;;;;;;;;5053262;28;20100;-57
2022/07/03 02:38:52;;;;;;;7.47;3.15;;;;;;;;;;5053157;28;20032;-65
2022/07/03 02:41:22;;;;;;;8.15;3.85;;;;;;;;;;5053234;28;20112;-57
2022/07/03 02:44:03;;;;;;;6.38;3.70;;;;;;;;;;5052841;28;20037;-57
2022/07/03 02:46:50;;;;;;;6.90;3.85;;;;;;;;;;5052988;28;20396;-57
2022/07/03 02:49:18;;;;;;;8.07;3.55;;;;;;;;;;5053178;28;20029;-58
2022/07/03 02:51:47;;;;;;;8.50;3.90;;;;;;;;;;5052872;28;20031;-57
2022/07/03 02:54:16;;;;;;;6.78;3.63;;;;;;;;;;5052695;28;20056;-69
2022/07/03 02:56:52;;;;;;;7.68;3.70;;;;;;;;;;5052708;28;20036;-56
2022/07/03 02:59:18;;;;;;;7.38;3.53;;;;;;;;;;5052398;28;20048;-67
2022/07/03 03:01:49;;;;;;;9.93;3.92;;;;;;;;;;5052797;28;20029;-57
2022/07/03 03:04:22;;;;;;;6.50;3.53;;;;;;;;;;5052647;28;20083;-68
2022/07/03 03:06:50;;;;;;;8.55;3.70;;;;;;;;;;5051632;28;20025;-56
2022/07/03 03:09:26;;;;;;;6.78;3.35;;;;;;;;;;5052883;28;20029;-69
2022/07/03 03:11:53;;;;;;;7.88;3.45;;;;;;;;;;5052329;28;20021;-57
2022/07/03 03:14:21;;;;;;;8.02;3.80;;;;;;;;;;5052580;28;20518;-57
2022/07/03 03:16:48;;;;;;;7.68;3.60;;;;;;;;;;5052392;28;20029;-68
2022/07/03 03:19:14;;;;;;;9.50;3.70;;;;;;;;;;5052269;28;20037;-57
2022/07/03 03:21:43;;;;;;;6.65;3.60;;;;;;;;;;5052134;28;20543;-57
2022/07/03 03:24:10;;;;;;;6.20;3.65;;;;;;;;;;5052098;28;20412;-57
2022/07/03 03:26:36;;;;;;;5.88;3.60;;;;;;;;;;5052209;28;20036;-65
2022/07/03 03:29:02;;;;;;;10.07;3.78;;;;;;;;;;5051747;28;20048;-65
2022/07/03 03:31:28;;;;;;;8.15;3.70;;;;;;;;;;5051781;28;20112;-69
2022/07/03 03:33:55;;;;;;;10.80;3.72;;;;;;;;;;5051925;28;20036;-67
2022/07/03 03:36:21;;;;;;;9.38;4.10;;;;;;;;;;5051788;28;20493;-65
2022/07/03 03:38:50;;;;;;;10.95;4.00;;;;;;;;;;5051817;28;20464;-65
2022/07/03 03:41:16;;;;;;;6.55;3.88;;;;;;;;;;5051615;28;20099;-66
2022/07/03 03:43:42;;;;;;;7.88;3.90;;;;;;;;;;5051921;28;20020;-65
2022/07/03 03:46:08;;;;;;;7.00;3.55;;;;;;;;;;5051455;28;20534;-65
2022/07/03 03:48:35;;;;;;;7.75;3.45;;;;;;;;;;5051492;28;20024;-65
2022/07/03 03:51:02;;;;;;;7.07;3.97;;;;;;;;;;5051344;28;20032;-65
2022/07/03 03:53:29;;;;;;;6.68;3.97;;;;;;;;;;5051586;28;20025;-65
2022/07/03 03:56:08;;;;;;;9.50;3.90;;;;;;;;;;5051467;28;20119;-65
2022/07/03 03:58:36;;;;;;;8.23;3.95;;;;;;;;;;5051299;28;20044;-65
2022/07/03 04:01:04;;;;;;;6.43;3.97;;;;;;;;;;5051220;28;20072;-67
2022/07/03 04:03:30;;;;;;;9.18;4.03;;;;;;;;;;5051708;28;20694;-67
2022/07/03 04:05:57;;;;;;;9.55;4.07;;;;;;;;;;5051121;28;20086;-68
2022/07/03 04:08:24;;;;;;;6.15;3.70;;;;;;;;;;5051606;28;20104;-68
2022/07/03 04:10:50;;;;;;;5.25;3.88;;;;;;;;;;5051401;28;20029;-67
2022/07/03 04:13:17;;;;;;;8.13;3.80;;;;;;;;;;5051450;28;20468;-66
2022/07/03 04:15:43;;;;;;;7.72;4.03;;;;;;;;;;5051162;28;20029;-67
2022/07/03 04:18:09;;;;;;;7.65;3.85;;;;;;;;;;5051302;28;20079;-66
2022/07/03 04:20:35;;;;;;;6.50;3.85;;;;;;;;;;5051202;28;20116;-70
2022/07/03 04:23:02;;;;;;;10.38;3.72;;;;;;;;;;5051060;28;20021;-65
2022/07/03 04:25:28;;;;;;;6.82;3.53;;;;;;;;;;5051178;28;20168;-67
2022/07/03 04:27:54;;;;;;;7.50;4.07;;;;;;;;;;5050697;28;20076;-66
2022/07/03 04:30:20;;;;;;;9.20;3.85;;;;;;;;;;5050621;28;20036;-65
2022/07/03 04:32:47;;;;;;;5.90;3.65;;;;;;;;;;5051262;28;20025;-65
2022/07/03 04:35:13;;;;;;;7.45;3.70;;;;;;;;;;5051197;28;20036;-66
2022/07/03 04:37:41;;;;;;;7.80;3.63;;;;;;;;;;5051084;28;20035;-65
2022/07/03 04:40:08;;;;;;;6.85;3.53;;;;;;;;;;5050877;28;20043;-67
2022/07/03 04:42:34;;;;;;;11.30;4.03;;;;;;;;;;5050947;28;20017;-66
2022/07/03 04:45:00;;;;;;;4.93;3.45;;;;;;;;;;5050931;28;20029;-68
2022/07/03 04:47:26;;;;;;;6.25;3.40;;;;;;;;;;5050694;28;20025;-67
2022/07/03 04:49:52;;;;;;;6.10;3.40;;;;;;;;;;5050906;28;20080;-65
2022/07/03 04:52:18;;;;;;;5.65;3.47;;;;;;;;;;5050751;28;20017;-66
2022/07/03 04:54:44;;;;;;;7.57;3.90;;;;;;;;;;5050450;28;20029;-66
2022/07/03 04:57:10;;;;;;;7.65;3.92;;;;;;;;;;5050851;28;20161;-66
2022/07/03 04:59:36;;;;;;;8.80;4.00;;;;;;;;;;5050138;28;20043;-66
2022/07/03 05:02:02;;;;;;;5.60;3.40;;;;;;;;;;5050499;28;20063;-68
2022/07/03 05:04:29;;;;;;;5.93;3.40;;;;;;;;;;5050627;28;20471;-66
2022/07/03 05:06:55;;;;;;;7.10;3.40;;;;;;;;;;5050446;28;20536;-69
2022/07/03 05:09:21;;;;;;;9.27;3.15;;;;;;;;;;5050468;28;20037;-72
2022/07/03 05:11:47;;;;;;;7.68;3.45;;;;;;;;;;5050339;28;20049;-66
2022/07/03 05:14:13;;;;;;;6.05;3.45;;;;;;;;;;5050530;28;20409;-70
2022/07/03 05:16:39;;;;;;;5.70;3.53;;;;;;;;;;5050201;28;20423;-67
2022/07/03 05:19:05;;;;;;;7.15;3.33;;;;;;;;;;5050161;28;20060;-66
2022/07/03 05:21:32;;;;;;;5.65;3.70;;;;;;;;;;5050314;28;20385;-68
2022/07/03 05:23:58;;;;;;;6.68;3.60;;;;;;;;;;5050118;28;20052;-67
2022/07/03 05:26:24;;;;;;;7.55;3.40;;;;;;;;;;5050334;28;20053;-70
2022/07/03 05:28:50;;;;;;;7.32;3.63;;;;;;;;;;5049870;28;20052;-67
2022/07/03 05:31:16;;;;;;;7.28;3.35;;;;;;;;;;5054174;28;20112;-70
2022/07/03 05:33:42;;;;;;;6.93;2.97;;;;;;;;;;5054428;28;20128;-70
2022/07/03 05:36:08;;;;;;;7.68;3.63;;;;;;;;;;5054517;28;20052;-71
2022/07/03 05:41:19;;;;;;;8.30;3.97;;;;;;;;;;5054503;28;20136;-68
2022/07/03 05:43:45;;;;;;;7.05;3.20;;;;;;;;;;5054498;28;20036;-70
2022/07/03 05:46:11;;;;;;;8.98;3.50;;;;;;;;;;5054025;28;20033;-65
2022/07/03 05:48:38;;;;;;;7.55;3.33;;;;;;;;;;5054141;28;20662;-66
2022/07/03 05:51:04;;;;;;;8.20;3.53;;;;;;;;;;5054258;28;20065;-71
2022/07/03 05:53:30;;;;;;;7.28;3.28;;;;;;;;;;5053857;28;20476;-70
2022/07/03 05:55:56;;;;;;;4.70;3.20;;;;;;;;;;5053879;28;20032;-65
2022/07/03 05:58:22;;;;;;;7.90;3.30;;;;;;;;;;5053566;28;20032;-70
2022/07/03 06:00:48;;;;;;;6.80;3.22;;;;;;;;;;5053598;28;20045;-69
2022/07/03 06:03:14;;;;;;;6.88;3.72;;;;;;;;;;5053982;28;20025;-67
2022/07/03 06:05:40;;;;;;;8.43;3.85;;;;;;;;;;5053802;28;20044;-65
2022/07/03 06:08:07;;;;;;;14.75;3.60;;;;;;;;;;5053891;28;20025;-69
2022/07/03 06:10:33;;;;;;;8.50;4.03;;;;;;;;;;5053724;28;20025;-69
2022/07/03 06:12:59;;;;;;;5.95;4.00;;;;;;;;;;5053769;28;20029;-70
2022/07/03 06:15:25;;;;;;;6.85;3.75;;;;;;;;;;5053408;28;20047;-70
2022/07/03 06:17:52;;;;;;;6.60;4.30;;;;;;;;;;5053523;28;20035;-69
2022/07/03 06:20:18;;;;;;;9.73;3.80;;;;;;;;;;5053112;28;20128;-65
2022/07/03 06:22:45;;;;;;;9.35;3.75;;;;;;;;;;5053173;28;20025;-66
2022/07/03 06:25:13;;;;;;;6.57;3.47;;;;;;;;;;5053102;28;20459;-64
2022/07/03 06:27:39;;;;;;;7.00;3.83;;;;;;;;;;5053027;28;20067;-67
2022/07/03 06:30:05;;;;;;;6.68;3.70;;;;;;;;;;5052727;28;20462;-66
2022/07/03 06:32:31;;;;;;;8.20;3.65;;;;;;;;;;5068867;28;20028;-65
2022/07/03 06:34:57;;;;;;;9.15;3.92;;;;;;;;;;5072925;28;20063;-68
2022/07/03 06:37:23;;;;;;;5.55;3.90;;;;;;;;;;5073111;28;20519;-65
2022/07/03 06:39:49;;;;;;;5.93;3.78;;;;;;;;;;5073081;28;20559;-66
2022/07/03 06:42:15;;;;;;;20.63;4.40;;;;;;;;;;5071647;28;20067;-64
2022/07/03 06:44:42;;;;;;;6.30;3.83;;;;;;;;;;5068910;28;20025;-65
2022/07/03 06:47:08;;;;;;;7.15;4.05;;;;;;;;;;5053004;28;20127;-65
2022/07/03 06:49:35;;;;;;;6.00;4.03;;;;;;;;;;5052764;28;20036;-65
2022/07/03 06:52:01;;;;;;;43.78;19.70;;;;;;;;;;5052683;28;20021;-65
2022/07/03 06:54:27;;;;;;;24.05;12.45;;;;;;;;;;5052388;28;20527;-65
2022/07/03 06:56:53;;;;;;;14.93;7.00;;;;;;;;;;5052518;28;20017;-64
2022/07/03 06:59:19;;;;;;;9.48;4.07;;;;;;;;;;5052436;28;20037;-65
2022/07/03 07:01:45;;;;;;;6.72;3.97;;;;;;;;;;5052257;28;20392;-75
2022/07/03 07:04:11;;;;;;;26.50;5.35;;;;;;;;;;5052420;28;20441;-63
2022/07/03 07:06:37;;;;;;;23.55;5.47;;;;;;;;;;5052495;28;20025;-64
2022/07/03 07:09:04;;;;;;;8.50;4.15;;;;;;;;;;5052293;28;20029;-63
2022/07/03 07:11:30;;;;;;;7.07;4.03;;;;;;;;;;5072206;28;20112;-79
2022/07/03 07:13:57;;;;;;;7.22;3.92;;;;;;;;;;5072363;28;20051;-64
2022/07/03 07:16:23;;;;;;;9.35;3.92;;;;;;;;;;5072122;28;20392;-65
2022/07/03 07:18:49;;;;;;;9.90;3.63;;;;;;;;;;5071791;28;20028;-71
2022/07/03 07:21:15;;;;;;;7.72;3.28;;;;;;;;;;5057412;28;20493;-69
2022/07/03 07:23:41;;;;;;;5.70;3.03;;;;;;;;;;5051524;28;20021;-64
2022/07/03 07:26:07;;;;;;;12.35;4.05;;;;;;;;;;5059092;28;20032;-65
2022/07/03 07:28:34;;;;;;;7.35;3.58;;;;;;;;;;5071401;28;20068;-67
2022/07/03 07:31:01;;;;;;;15.40;4.35;;;;;;;;;;5071562;28;20048;-64
2022/07/03 07:33:27;;;;;;;8.32;4.03;;;;;;;;;;5071689;28;20171;-65
2022/07/03 07:35:53;;;;;;;4.78;3.55;;;;;;;;;;5072024;28;20032;-65
2022/07/03 07:38:19;;;;;;;5.53;3.67;;;;;;;;;;5070747;28;20048;-85
2022/07/03 07:40:45;;;;;;;10.65;4.10;;;;;;;;;;5071516;28;20056;-65
2022/07/03 07:43:11;;;;;;;8.65;3.70;;;;;;;;;;5071732;28;20072;-68
2022/07/03 07:45:37;;;;;;;18.05;6.65;;;;;;;;;;5071186;28;20048;-65
2022/07/03 07:48:04;;;;;;;9.05;4.35;;;;;;;;;;5071631;28;20021;-71
2022/07/03 07:50:30;;;;;;;34.47;7.75;;;;;;;;;;5071275;28;20032;-65
2022/07/03 07:52:56;;;;;;;9.90;4.25;;;;;;;;;;5071544;28;20032;-79
2022/07/03 07:55:22;;;;;;;14.45;4.25;;;;;;;;;;5072552;28;20032;-66
2022/07/03 07:57:49;;;;;;;8.52;4.65;;;;;;;;;;5072715;28;20034;-65
2022/07/03 08:00:16;;;;;;;30.98;7.78;;;;;;;;;;5071910;28;20037;-68
2022/07/03 08:05:37;;;;;;;9.98;3.83;;;;;;;;;;5072114;28;20162;-72
2022/07/03 08:08:09;;;;;;;7.57;3.88;;;;;;;;;;5072436;28;20033;-67
2022/07/03 08:10:34;;;;;;;;;;;;;;;;;;5073377;28;20476;-63
2022/07/03 08:13:01;;;;;;;10.63;4.53;;;;;;;;;;5072685;28;19914;-63
2022/07/03 08:15:27;;;;;;;12.45;4.85;;;;;;;;;;5074043;28;20605;-64
2022/07/03 08:17:53;;;;;;;12.02;4.82;;;;;;;;;;5075432;28;20024;-72
2022/07/03 08:20:19;;;;;;;12.80;5.25;;;;;;;;;;5072303;28;20044;-82
2022/07/03 08:22:45;;;;;;;20.15;5.90;;;;;;;;;;5070973;28;20391;-64
2022/07/03 08:25:11;;;;;;;20.90;6.13;;;;;;;;;;5070724;28;20037;-72
2022/07/03 08:27:37;;;;;;;19.30;7.32;;;;;;;;;;5070504;28;20143;-65
2022/07/03 08:30:04;;;;;;;34.80;8.52;;;;;;;;;;5070266;28;20040;-65
2022/07/03 08:32:31;;;;;;;24.50;6.18;;;;;;;;;;5070922;28;20059;-75
2022/07/03 08:34:57;;;;;;;8.93;5.57;;;;;;;;;;5070542;28;20043;-69
2022/07/03 08:37:23;;;;;;;9.55;4.22;;;;;;;;;;5070775;28;20413;-65
2022/07/03 08:39:49;;;;;;;9.70;4.18;;;;;;;;;;5070514;28;20071;-79
2022/07/03 08:42:16;;;;;;;9.38;4.93;;;;;;;;;;5070857;28;20035;-71
2022/07/03 08:44:43;;;;;;;10.45;4.22;;;;;;;;;;5070832;28;20440;-72
2022/07/03 08:47:18;;;;;;;8.63;4.25;;;;;;;;;;5087392;28;20042;-71
2022/07/03 08:50:11;;;;;;;10.80;4.05;;;;;;;;;;5078674;28;20021;-71
2022/07/03 08:52:47;;;;;;;7.75;4.25;;;;;;;;;;5014485;28;20018;-77
2022/07/03 08:55:15;;;;;;;13.80;4.97;;;;;;;;;;4959942;28;20042;-66
2022/07/03 08:57:42;;;;;;;9.13;3.88;;;;;;;;;;4988120;28;20246;-66
2022/07/03 09:00:09;;;;;;;13.38;4.07;;;;;;;;;;4988672;28;20543;-65
2022/07/03 09:02:36;;;;;;;18.25;5.35;;;;;;;;;;4988657;28;20105;-67
2022/07/03 09:05:02;;;;;;;13.70;5.88;;;;;;;;;;4988492;28;20019;-67
2022/07/03 09:07:31;;;;;;;13.10;4.57;;;;;;;;;;4990556;28;20097;-65
2022/07/03 09:09:57;;;;;;;15.25;6.38;;;;;;;;;;4988657;28;20125;-67
2022/07/03 09:12:23;;;;;;;18.70;6.68;;;;;;;;;;4988552;28;20483;-67
2022/07/03 09:14:50;;;;;;;9.05;4.55;;;;;;;;;;4988706;28;20058;-65
2022/07/03 09:17:16;;;;;;;10.73;4.65;;;;;;;;;;4988285;28;20030;-65
2022/07/03 09:19:47;;;;;;;12.05;5.00;;;;;;;;;;4988641;28;20042;-73
2022/07/03 09:22:25;;;;;;;27.60;7.55;;;;;;;;;;4988592;28;20033;-67
2022/07/03 09:24:51;;;;;;;18.58;6.20;;;;;;;;;;4988693;28;20058;-67
2022/07/03 09:27:19;;;;;;;9.80;5.60;;;;;;;;;;4980448;28;20030;-66
2022/07/03 09:30:11;;;;;;;31.17;8.57;;;;;;;;;;5035286;28;20131;-66
2022/07/03 09:32:37;;;;;;;21.50;6.53;;;;;;;;;;5065606;28;20044;-67
2022/07/03 09:35:33;;;;;;;7.13;3.83;;;;;;;;;;5070337;28;20025;-66
2022/07/03 09:38:01;;;;;;;10.68;4.20;;;;;;;;;;4968997;28;20046;-67
2022/07/03 09:40:30;;;;;;;11.55;4.80;;;;;;;;;;4969065;28;20402;-66
2022/07/03 09:43:02;;;;;;;12.57;4.88;;;;;;;;;;4969120;28;20066;-66
2022/07/03 09:45:48;;;;;;;9.95;4.57;;;;;;;;;;4969306;28;20388;-70
2022/07/03 09:48:29;;;;;;;9.75;4.68;;;;;;;;;;4969251;28;20447;-67
2022/07/03 09:51:13;;;;;;;14.77;5.30;;;;;;;;;;4969139;28;20046;-66
2022/07/03 09:53:45;;;;;;;8.85;4.80;;;;;;;;;;4968524;28;20031;-74
2022/07/03 09:56:11;;;;;;;15.48;4.93;;;;;;;;;;4969023;28;20049;-63
2022/07/03 09:58:38;;;;;;;10.23;5.32;;;;;;;;;;4968477;28;20141;-66
2022/07/03 10:01:30;;;;;;;10.88;4.97;;;;;;;;;;4968365;28;20109;-66
2022/07/03 10:04:10;;;;;;;10.48;4.55;;;;;;;;;;4966315;28;20039;-64
2022/07/03 10:06:51;;;;;;;13.80;5.00;;;;;;;;;;4968915;28;20043;-65
2022/07/03 10:09:18;;;;;;;17.07;5.60;;;;;;;;;;4969039;28;20031;-67
2022/07/03 10:11:44;;;;;;;21.60;5.97;;;;;;;;;;4968573;28;20039;-64
2022/07/03 10:14:13;;;;;;;45.03;8.52;;;;;;;;;;5004813;28;20036;-64
2022/07/03 10:16:40;;;;;;;38.50;7.43;;;;;;;;;;5072436;28;20024;-75
2022/07/03 10:19:07;;;;;;;36.42;7.50;;;;;;;;;;5055097;28;20024;-63
2022/07/03 10:21:36;;;;;;;27.88;6.68;;;;;;;;;;5073332;28;20067;-66
2022/07/03 10:24:03;;;;;;;52.38;8.55;;;;;;;;;;5072966;28;20464;-67
2022/07/03 10:26:30;;;;;;;25.73;6.85;;;;;;;;;;5072733;28;20033;-69
2022/07/03 10:28:56;;;;;;;45.90;8.23;;;;;;;;;;5072668;28;20089;-65
2022/07/03 10:31:23;;;;;;;38.95;6.40;;;;;;;;;;5072711;28;20040;-66
2022/07/03 10:33:49;;;;;;;36.95;6.88;;;;;;;;;;5073001;28;20020;-65
2022/07/03 10:36:15;;;;;;;12.35;4.97;;;;;;;;;;5073002;28;20334;-72
2022/07/03 10:38:46;;;;;;;10.70;4.55;;;;;;;;;;5073069;28;20354;-72
2022/07/03 10:46:46;;;;;;;16.38;5.28;;;;;;;;;;5072818;28;20051;-71
2022/07/03 10:49:12;;;;;;;14.57;5.15;;;;;;;;;;5072480;28;20020;-71
2022/07/03 10:51:44;;;;;;;13.07;5.20;;;;;;;;;;5072895;28;20387;-71
2022/07/03 10:54:10;;;;;;;;;;;;;;;;;;5073465;28;20024;-71
2022/07/03 10:56:56;;;;;;;19.83;5.95;;;;;;;;;;5072982;28;20240;-71
2022/07/03 10:59:22;;;;;;;10.82;5.13;;;;;;;;;;5072605;28;20109;-72
2022/07/03 11:01:48;;;;;;;13.00;5.53;;;;;;;;;;5072480;28;20024;-71
2022/07/03 11:04:14;;;;;;;12.85;5.95;;;;;;;;;;5072410;28;20029;-73
2022/07/03 11:06:40;;;;;;;12.20;5.95;;;;;;;;;;5072790;28;20598;-72
2022/07/03 11:09:09;;;;;;;13.63;5.85;;;;;;;;;;5072413;28;20112;-73
2022/07/03 11:11:57;;;;;;;13.90;5.90;;;;;;;;;;5072328;28;20048;-70
2022/07/03 11:14:30;;;;;;;11.52;6.40;;;;;;;;;;5072117;28;20020;-73
2022/07/03 11:17:15;;;;;;;13.98;6.75;;;;;;;;;;5071976;28;20029;-72
2022/07/03 11:19:41;;;;;;;14.52;5.90;;;;;;;;;;5072182;28;20187;-74
2022/07/03 11:22:11;;;;;;;12.05;5.15;;;;;;;;;;5071941;28;20021;-73
2022/07/03 11:24:45;;;;;;;12.32;4.80;;;;;;;;;;5072075;28;20051;-71
2022/07/03 11:27:21;;;;;;;9.82;5.18;;;;;;;;;;5070491;28;20075;-71
2022/07/03 11:29:51;;;;;;;10.48;4.90;;;;;;;;;;5071537;28;20107;-71
2022/07/03 11:32:36;;;;;;;7.85;4.60;;;;;;;;;;5071857;28;20025;-73
2022/07/03 11:35:02;;;;;;;10.60;5.10;;;;;;;;;;5071829;28;20043;-73
2022/07/03 11:37:29;;;;;;;8.45;4.78;;;;;;;;;;5071766;28;20024;-73
2022/07/03 11:39:57;;;;;;;9.90;4.65;;;;;;;;;;5071572;28;20094;-73
2022/07/03 11:42:23;;;;;;;8.85;5.07;;;;;;;;;;5071426;28;20025;-74
2022/07/03 11:44:49;;;;;;;10.13;5.43;;;;;;;;;;5071112;28;20107;-73
2022/07/03 11:47:16;;;;;;;9.55;5.30;;;;;;;;;;5071603;28;20021;-76
2022/07/03 11:49:51;;;;;;;11.80;5.35;;;;;;;;;;5071444;28;20036;-78
2022/07/03 11:52:31;;;;;;;8.13;5.00;;;;;;;;;;5071797;28;20059;-73
2022/07/03 11:54:57;;;;;;;9.27;5.20;;;;;;;;;;5071520;28;20042;-75
2022/07/03 11:57:23;;;;;;;11.38;5.20;;;;;;;;;;5071277;28;20033;-75
2022/07/03 11:59:52;;;;;;;9.38;4.97;;;;;;;;;;5071207;28;20040;-72
2022/07/03 12:02:18;;;;;;;8.32;5.75;;;;;;;;;;5071414;28;20031;-73
2022/07/03 12:04:44;;;;;;;8.88;5.80;;;;;;;;;;5071432;28;20071;-76
2022/07/03 12:07:10;;;;;;;11.90;6.13;;;;;;;;;;5071347;28;20098;-73
2022/07/03 12:09:36;;;;;;;9.30;5.40;;;;;;;;;;5071579;28;20036;-73
2022/07/03 12:12:03;;;;;;;8.70;5.57;;;;;;;;;;5071574;28;20025;-73
2022/07/03 12:14:38;;;;;;;10.77;5.55;;;;;;;;;;5071352;28;20054;-74
2022/07/03 12:17:04;;;;;;;9.70;5.22;;;;;;;;;;5071307;28;20113;-73
2022/07/03 12:19:30;;;;;;;9.88;5.13;;;;;;;;;;5071284;28;20032;-74
2022/07/03 12:21:56;;;;;;;11.18;6.20;;;;;;;;;;5070932;28;20040;-73
2022/07/03 12:24:23;;;;;;;9.40;5.72;;;;;;;;;;5070949;28;20025;-74
2022/07/03 12:26:49;;;;;;;7.90;5.20;;;;;;;;;;5071244;28;20078;-74
2022/07/03 12:29:15;;;;;;;12.43;5.68;;;;;;;;;;5070757;28;20412;-73
2022/07/03 12:31:42;;;;;;;8.75;4.97;;;;;;;;;;5070719;28;20021;-72
2022/07/03 12:34:08;;;;;;;8.00;5.28;;;;;;;;;;5070905;28;20064;-75
2022/07/03 12:36:34;;;;;;;8.60;5.15;;;;;;;;;;5070493;28;20029;-76
2022/07/03 12:39:00;;;;;;;10.20;5.80;;;;;;;;;;5070371;28;20032;-73
2022/07/03 12:41:27;;;;;;;9.80;5.90;;;;;;;;;;5070847;28;20078;-73
2022/07/03 12:43:53;;;;;;;9.68;5.65;;;;;;;;;;5070723;28;20070;-73
2022/07/03 12:46:33;;;;;;;8.77;5.47;;;;;;;;;;5070752;28;20032;-73
2022/07/03 12:49:00;;;;;;;8.27;6.13;;;;;;;;;;5070769;28;20020;-73
2022/07/03 12:51:39;;;;;;;8.63;5.05;;;;;;;;;;5070749;28;20545;-76
2022/07/03 12:54:06;;;;;;;9.88;6.07;;;;;;;;;;5070743;28;20020;-72
2022/07/03 12:56:32;;;;;;;9.82;6.00;;;;;;;;;;5070745;28;20135;-72
2022/07/03 12:59:16;;;;;;;9.93;5.63;;;;;;;;;;5070234;28;20059;-73
2022/07/03 13:01:42;;;;;;;9.65;6.00;;;;;;;;;;5070220;28;20482;-75
2022/07/03 13:04:09;;;;;;;12.27;6.43;;;;;;;;;;5070450;28;20376;-74
2022/07/03 13:06:35;;;;;;;11.52;6.55;;;;;;;;;;5070409;28;20024;-80
2022/07/03 13:09:03;;;;;;;7.25;5.78;;;;;;;;;;5070492;28;20029;-75
2022/07/03 13:11:31;;;;;;;10.07;6.00;;;;;;;;;;5070090;28;20545;-73
2022/07/03 13:14:04;;;;;;;9.00;5.82;;;;;;;;;;5070495;28;20372;-74
2022/07/03 13:16:36;;;;;;;10.32;6.57;;;;;;;;;;5070399;28;20035;-74
2022/07/03 13:19:02;;;;;;;7.60;5.65;;;;;;;;;;5070277;28;20025;-73
2022/07/03 13:21:29;;;;;;;11.95;6.50;;;;;;;;;;5070131;28;20028;-75
2022/07/03 13:23:56;;;;;;;7.82;6.47;;;;;;;;;;5070383;28;20020;-74
2022/07/03 13:26:22;;;;;;;10.20;6.47;;;;;;;;;;5070114;28;20024;-74
2022/07/03 13:28:48;;;;;;;9.30;6.13;;;;;;;;;;5070238;28;20076;-78
2022/07/03 13:31:14;;;;;;;12.15;6.35;;;;;;;;;;5070504;28;20024;-75
2022/07/03 13:33:40;;;;;;;8.68;6.43;;;;;;;;;;5070352;28;20035;-75
2022/07/03 13:36:06;;;;;;;8.43;6.28;;;;;;;;;;5070072;28;20055;-75
2022/07/03 13:38:32;;;;;;;9.77;6.45;;;;;;;;;;5070084;28;20472;-73
2022/07/03 13:40:58;;;;;;;11.82;6.63;;;;;;;;;;5070170;28;20040;-76
2022/07/03 13:43:24;;;;;;;9.15;6.22;;;;;;;;;;5070303;28;20025;-73
2022/07/03 13:45:50;;;;;;;11.00;6.18;;;;;;;;;;5070350;28;20032;-74
2022/07/03 13:48:16;;;;;;;10.90;6.32;;;;;;;;;;5061620;28;20074;-73
2022/07/03 13:50:43;;;;;;;11.15;6.28;;;;;;;;;;5071317;28;20024;-74
2022/07/03 13:53:09;;;;;;;10.27;6.88;;;;;;;;;;5073599;28;20059;-80
2022/07/03 13:55:35;;;;;;;11.68;6.97;;;;;;;;;;5073827;28;20028;-75
2022/07/03 13:58:04;;;;;;;11.05;6.43;;;;;;;;;;5073819;28;20044;-75
2022/07/03 14:00:30;;;;;;;10.20;7.07;;;;;;;;;;5073494;28;20484;-77
2022/07/03 14:02:56;;;;;;;10.00;6.50;;;;;;;;;;5073889;28;20035;-76
2022/07/03 14:05:22;;;;;;;10.45;7.00;;;;;;;;;;5073564;28;20067;-75
2022/07/03 14:07:49;;;;;;;11.00;6.85;;;;;;;;;;5073529;28;20024;-73
2022/07/03 14:10:15;;;;;;;11.32;8.30;;;;;;;;;;5073712;28;20035;-75
2022/07/03 14:12:42;;;;;;;11.75;7.13;;;;;;;;;;5073860;28;20380;-75
2022/07/03 14:15:08;;;;;;;16.85;7.45;;;;;;;;;;5073396;28;20021;-74
2022/07/03 14:17:34;;;;;;;11.05;7.30;;;;;;;;;;5073578;28;20041;-74
2022/07/03 14:20:00;;;;;;;11.98;7.32;;;;;;;;;;5073581;28;20033;-75
2022/07/03 14:22:27;;;;;;;10.25;6.93;;;;;;;;;;5073347;28;20107;-74
2022/07/03 14:24:53;;;;;;;12.80;6.88;;;;;;;;;;5073463;28;20119;-74
2022/07/03 14:32:49;;;;;;;9.68;7.65;;;;;;;;;;5073288;28;20447;-74
2022/07/03 14:35:15;;;;;;;12.73;7.20;;;;;;;;;;5073153;28;20427;-79
2022/07/03 14:37:41;;;;;;;10.68;7.50;;;;;;;;;;5072899;28;20472;-74
2022/07/03 14:40:08;;;;;;;10.40;6.85;;;;;;;;;;5073037;28;20052;-74
2022/07/03 14:42:34;;;;;;;8.50;6.72;;;;;;;;;;5073098;28;20016;-74
2022/07/03 14:45:01;;;;;;;11.00;7.10;;;;;;;;;;5072583;28;20040;-73
2022/07/03 14:47:27;;;;;;;10.88;6.90;;;;;;;;;;5072911;28;20032;-74
2022/07/03 14:49:53;;;;;;;14.93;7.65;;;;;;;;;;5073036;28;20526;-74
2022/07/03 14:52:19;;;;;;;9.02;7.15;;;;;;;;;;5072997;28;20036;-73
2022/07/03 14:54:45;;;;;;;12.05;6.90;;;;;;;;;;5072588;28;20032;-79
2022/07/03 14:57:34;;;;;;;18.52;7.50;;;;;;;;;;5070099;28;20041;-76
2022/07/03 15:00:05;;;;;;;9.23;7.07;;;;;;;;;;5070220;28;20100;-74
2022/07/03 15:02:40;;;;;;;9.00;6.65;;;;;;;;;;5071547;28;20051;-74